Terminal Aerodrome Forecast
Issued by NWS

Home | Current Version | Previous Version | Text Only | Print | Product List | Glossary On
Versions: 1 2 3 4 5 6 7 8 9 10 11 12 13 14 15 16 17 18 19 20 21
000
FTUS43 KDLH 260600 AAA
TAFHYR
TAF AMD
KHYR 260620Z 2606/2706 04003KT 3SM -SN OVC025
      TEMPO 2606/2608 6SM -SN SCT025 OVC050
     FM260800 02004KT 6SM -SN OVC025
     FM262000 01005KT P6SM BKN028 OVC050
     FM270400 02004KT 4SM -SN BKN016 OVC027=

USA.gov is the U.S. government's official web portal to all federal, state and local government web resources and services.